createdAt,value
2022-12-23T00:01:00.614Z,9.60
2022-12-23T00:03:31.056Z,9.60
2022-12-23T00:06:00.708Z,9.70
2022-12-23T00:08:27.726Z,9.70
2022-12-23T00:10:59.557Z,9.90
2022-12-23T00:13:44.720Z,10.00
2022-12-23T00:16:16.614Z,10.10
2022-12-23T00:18:43.443Z,10.20
2022-12-23T00:21:20.647Z,10.30
2022-12-23T00:23:49.782Z,10.40
2022-12-23T00:26:22.392Z,10.50
2022-12-23T00:28:52.365Z,10.60
2022-12-23T00:31:20.334Z,10.70
2022-12-23T00:33:52.667Z,10.70
2022-12-23T00:36:28.283Z,10.80
2022-12-23T00:39:15.773Z,10.80
2022-12-23T00:42:04.652Z,10.90
2022-12-23T00:44:33.741Z,11.00
2022-12-23T00:47:00.377Z,11.10
2022-12-23T00:49:44.337Z,11.10
2022-12-23T00:52:14.781Z,11.20
2022-12-23T00:54:41.902Z,11.30
2022-12-23T00:57:18.692Z,11.30
2022-12-23T00:59:45.322Z,11.40
2022-12-23T01:02:30.718Z,11.60
2022-12-23T01:05:16.296Z,11.70
2022-12-23T01:10:36.500Z,11.70
2022-12-23T01:13:06.024Z,11.70
2022-12-23T01:15:33.120Z,11.80
2022-12-23T01:18:02.216Z,11.80
2022-12-23T01:20:28.967Z,11.80
2022-12-23T01:22:56.723Z,11.90
2022-12-23T01:25:25.829Z,11.90
2022-12-23T01:28:04.924Z,11.90
2022-12-23T01:30:31.544Z,11.90
2022-12-23T01:33:02.464Z,11.90
2022-12-23T01:35:31.208Z,12.00
2022-12-23T01:37:57.850Z,12.00
2022-12-23T01:40:34.840Z,12.00
2022-12-23T01:43:01.489Z,12.00
2022-12-23T01:45:34.824Z,12.00
2022-12-23T01:48:11.982Z,12.10
2022-12-23T01:50:41.296Z,12.10
2022-12-23T01:53:27.569Z,12.10
2022-12-23T01:55:59.996Z,12.10
2022-12-23T01:58:29.758Z,12.00
2022-12-23T02:01:16.867Z,12.00
2022-12-23T02:03:45.920Z,12.10
2022-12-23T02:06:31.231Z,12.00
2022-12-23T02:09:16.387Z,12.00
2022-12-23T02:11:51.293Z,12.10
2022-12-23T02:14:44.024Z,12.10
2022-12-23T02:17:32.006Z,12.10
2022-12-23T02:20:32.772Z,12.10
2022-12-23T02:23:18.587Z,12.10
2022-12-23T02:26:14.471Z,12.10
2022-12-23T02:29:21.392Z,12.00
2022-12-23T02:32:19.121Z,12.10
2022-12-23T02:44:33.839Z,12.30
2022-12-23T02:47:14.773Z,12.20
2022-12-23T02:49:49.545Z,12.20
2022-12-23T02:52:21.840Z,12.30
2022-12-23T02:54:55.844Z,12.30
2022-12-23T02:57:32.174Z,12.30
2022-12-23T03:00:00.855Z,12.30
2022-12-23T03:02:33.816Z,12.20
2022-12-23T03:05:01.269Z,12.30
2022-12-23T03:07:43.484Z,12.20
2022-12-23T03:10:33.880Z,12.30
2022-12-23T03:16:32.227Z,12.30
2022-12-23T03:19:09.523Z,12.20
2022-12-23T03:21:55.941Z,12.20
2022-12-23T03:24:35.361Z,12.20
2022-12-23T03:27:25.243Z,12.20
2022-12-23T03:30:14.720Z,12.20
2022-12-23T03:32:54.160Z,12.20
2022-12-23T03:35:47.817Z,12.10
2022-12-23T03:38:18.309Z,12.20
2022-12-23T03:40:51.495Z,12.20
2022-12-23T03:43:33.747Z,12.20
2022-12-23T03:46:12.952Z,12.20
2022-12-23T03:48:49.951Z,12.20
2022-12-23T03:51:26.696Z,12.20
2022-12-23T03:54:04.383Z,12.10
2022-12-23T03:56:38.291Z,12.20
2022-12-23T03:59:17.358Z,12.30
2022-12-23T04:02:09.032Z,12.30
2022-12-23T04:04:54.616Z,12.30
2022-12-23T04:07:38.034Z,12.30
2022-12-23T04:10:06.895Z,12.30
2022-12-23T04:12:38.506Z,12.30
2022-12-23T04:15:12.308Z,12.30
2022-12-23T04:17:39.836Z,12.30
2022-12-23T04:20:11.127Z,12.20
2022-12-23T04:22:39.033Z,12.30
2022-12-23T04:25:13.439Z,12.30
2022-12-23T04:27:41.311Z,12.30
2022-12-23T04:30:11.037Z,12.40
2022-12-23T04:32:39.267Z,12.30
2022-12-23T04:35:11.352Z,12.30
2022-12-23T04:37:38.919Z,12.20
2022-12-23T04:40:09.118Z,12.20
2022-12-23T04:42:36.863Z,12.20
2022-12-23T04:45:08.079Z,12.30
2022-12-23T04:47:40.794Z,12.30
2022-12-23T04:50:14.029Z,12.30
2022-12-23T04:52:41.418Z,12.30
2022-12-23T04:55:10.040Z,12.30
2022-12-23T04:57:37.768Z,12.30
2022-12-23T05:00:08.505Z,12.30
2022-12-23T05:02:35.488Z,12.40
2022-12-23T05:05:02.450Z,12.40
2022-12-23T05:07:32.126Z,12.40
2022-12-23T05:10:00.935Z,12.40
2022-12-23T05:12:31.524Z,12.30
2022-12-23T05:14:58.253Z,12.20
2022-12-23T05:17:25.066Z,12.20
2022-12-23T05:19:54.098Z,12.20
2022-12-23T05:22:20.713Z,12.10
2022-12-23T05:24:47.368Z,12.10
2022-12-23T05:27:41.965Z,12.10
2022-12-23T05:30:11.803Z,12.00
2022-12-23T05:32:39.186Z,12.10
2022-12-23T05:35:31.065Z,12.00
2022-12-23T05:38:04.397Z,12.00
2022-12-23T05:40:34.101Z,12.00
2022-12-23T05:43:04.194Z,12.00
2022-12-23T05:45:34.495Z,12.00
2022-12-23T05:48:03.565Z,12.00
2022-12-23T05:50:30.588Z,12.00
2022-12-23T05:53:05.245Z,11.90
2022-12-23T05:55:37.879Z,12.00
2022-12-23T05:58:05.090Z,11.90
2022-12-23T06:00:31.858Z,11.90
2022-12-23T06:03:05.370Z,11.90
2022-12-23T06:05:32.255Z,11.90
2022-12-23T06:07:59.904Z,11.80
2022-12-23T06:10:26.606Z,11.80
2022-12-23T06:12:56.305Z,11.80
2022-12-23T06:15:26.716Z,11.80
2022-12-23T06:17:55.202Z,11.80
2022-12-23T06:20:21.849Z,11.80
2022-12-23T06:22:56.711Z,11.80
2022-12-23T06:25:30.202Z,11.80
2022-12-23T06:28:00.555Z,11.80
2022-12-23T06:30:27.346Z,11.70
2022-12-23T06:33:00.326Z,11.70
2022-12-23T06:35:33.844Z,11.70
2022-12-23T06:38:28.933Z,11.70
2022-12-23T06:41:00.654Z,11.70
2022-12-23T06:43:27.439Z,11.60
2022-12-23T06:45:54.677Z,11.60
2022-12-23T06:48:21.527Z,11.60
2022-12-23T06:50:53.965Z,11.60
2022-12-23T06:53:20.774Z,11.50
2022-12-23T06:55:47.402Z,11.60
2022-12-23T06:58:18.608Z,11.60
2022-12-23T07:00:49.935Z,11.50
2022-12-23T07:03:19.955Z,11.60
2022-12-23T07:05:47.886Z,11.60
2022-12-23T07:08:16.677Z,11.70
2022-12-23T07:10:43.407Z,11.60
2022-12-23T07:13:12.171Z,11.60
2022-12-23T07:15:41.848Z,11.60
2022-12-23T07:18:10.920Z,11.70
2022-12-23T07:20:39.714Z,11.70
2022-12-23T07:23:06.442Z,11.70
2022-12-23T07:25:33.174Z,11.80
2022-12-23T07:27:59.871Z,11.80
2022-12-23T07:30:33.159Z,11.90
2022-12-23T07:33:01.663Z,12.00
2022-12-23T07:35:28.329Z,12.00
2022-12-23T07:37:58.440Z,12.10
2022-12-23T07:40:26.566Z,12.10
2022-12-23T07:42:57.834Z,12.10
2022-12-23T07:45:28.562Z,12.10
2022-12-23T07:47:57.142Z,12.20
2022-12-23T07:50:26.918Z,12.20
2022-12-23T07:52:58.439Z,12.20
2022-12-23T07:55:27.994Z,12.20
2022-12-23T07:57:57.687Z,12.10
2022-12-23T08:00:27.597Z,12.10
2022-12-23T08:02:54.753Z,12.10
2022-12-23T08:05:28.772Z,12.00
2022-12-23T08:07:58.549Z,12.00
2022-12-23T08:10:30.529Z,12.10
2022-12-23T08:22:08.092Z,12.20
2022-12-23T08:24:37.873Z,12.30
2022-12-23T08:27:05.098Z,12.30
2022-12-23T08:29:38.736Z,12.40
2022-12-23T08:32:06.332Z,12.40
2022-12-23T08:34:33.440Z,12.50
2022-12-23T08:37:07.445Z,12.50
2022-12-23T08:39:35.451Z,12.50
2022-12-23T08:42:04.609Z,12.60
2022-12-23T08:44:33.442Z,12.50
2022-12-23T08:47:00.170Z,12.60
2022-12-23T08:49:28.507Z,12.60
2022-12-23T08:51:58.291Z,12.60
2022-12-23T08:54:30.150Z,12.50
2022-12-23T08:56:59.305Z,12.50
2022-12-23T08:59:25.938Z,12.50
2022-12-23T09:01:52.769Z,12.40
2022-12-23T09:04:20.101Z,12.40
2022-12-23T09:06:47.088Z,12.40
2022-12-23T09:09:16.756Z,12.30
2022-12-23T09:11:43.608Z,12.30
2022-12-23T09:14:10.853Z,12.20
2022-12-23T09:16:38.625Z,12.30
2022-12-23T09:19:05.460Z,12.20
2022-12-23T09:21:36.546Z,12.20
2022-12-23T09:24:06.116Z,12.20
2022-12-23T09:26:32.890Z,12.10
2022-12-23T09:28:59.817Z,12.20
2022-12-23T09:31:30.682Z,12.20
2022-12-23T09:34:05.354Z,12.20
2022-12-23T09:36:34.080Z,12.20
2022-12-23T09:39:03.521Z,12.20
2022-12-23T09:41:51.566Z,12.20
2022-12-23T09:44:29.821Z,12.20
2022-12-23T09:47:02.609Z,12.20
2022-12-23T09:49:29.479Z,12.20
2022-12-23T09:52:24.974Z,12.30
2022-12-23T09:54:55.219Z,12.30
2022-12-23T10:02:17.713Z,12.20
2022-12-23T10:04:51.608Z,12.30
2022-12-23T10:07:34.405Z,12.30
2022-12-23T10:10:10.648Z,12.20
2022-12-23T10:12:52.091Z,12.30
2022-12-23T10:15:44.672Z,12.30
2022-12-23T10:18:38.190Z,12.20
2022-12-23T10:21:30.741Z,12.20
2022-12-23T10:24:03.503Z,12.20
2022-12-23T10:26:49.109Z,12.20
2022-12-23T10:29:19.695Z,12.20
2022-12-23T10:31:57.420Z,12.20
2022-12-23T10:34:49.676Z,12.30
2022-12-23T10:37:22.892Z,12.30
2022-12-23T10:40:07.294Z,12.30
2022-12-23T10:42:38.249Z,12.30
2022-12-23T10:45:20.158Z,12.30
2022-12-23T10:48:11.920Z,12.30
2022-12-23T10:50:59.023Z,12.40
2022-12-23T10:53:41.409Z,12.30
2022-12-23T10:56:11.968Z,12.40
2022-12-23T10:58:44.252Z,12.40
2022-12-23T11:01:22.063Z,12.40
2022-12-23T11:03:56.171Z,12.40
2022-12-23T11:06:36.791Z,12.50
2022-12-23T11:09:15.930Z,12.40
2022-12-23T11:11:59.943Z,12.40
2022-12-23T11:14:41.114Z,12.50
2022-12-23T11:17:30.059Z,12.50
2022-12-23T11:20:19.438Z,12.50
2022-12-23T11:23:28.741Z,12.50
2022-12-23T11:26:08.057Z,12.50
2022-12-23T11:28:41.757Z,12.50
2022-12-23T11:31:13.689Z,12.60
2022-12-23T11:33:56.928Z,12.60
2022-12-23T11:36:29.177Z,12.60
2022-12-23T11:38:58.745Z,12.60
2022-12-23T11:41:36.703Z,12.60
2022-12-23T11:44:11.583Z,12.60
2022-12-23T11:46:38.391Z,12.60
2022-12-23T11:49:18.911Z,12.50
2022-12-23T11:52:07.880Z,12.50
2022-12-23T11:54:36.757Z,12.50
2022-12-23T11:57:14.070Z,12.50
2022-12-23T11:59:48.147Z,12.50
2022-12-23T12:02:19.523Z,12.50
2022-12-23T12:04:56.845Z,12.40
2022-12-23T12:07:26.114Z,12.50
2022-12-23T12:09:57.101Z,12.50
2022-12-23T12:12:24.066Z,12.50
2022-12-23T12:14:57.688Z,12.50
2022-12-23T12:17:27.804Z,12.50
2022-12-23T12:20:16.291Z,12.50
2022-12-23T12:22:48.631Z,12.50
2022-12-23T12:25:40.735Z,12.50
2022-12-23T12:28:17.938Z,12.60
2022-12-23T12:31:01.805Z,12.60
2022-12-23T12:33:47.734Z,12.60
2022-12-23T12:39:29.897Z,12.60
2022-12-23T12:42:05.823Z,12.60
2022-12-23T12:44:42.864Z,12.60
2022-12-23T12:47:53.205Z,12.60
2022-12-23T12:50:22.735Z,12.60
2022-12-23T12:55:52.748Z,12.70
2022-12-23T12:58:26.973Z,12.70
2022-12-23T13:01:21.562Z,12.70
2022-12-23T13:04:03.556Z,12.80
2022-12-23T13:06:41.481Z,12.80
2022-12-23T13:09:21.872Z,12.80
2022-12-23T13:12:11.770Z,12.80
2022-12-23T13:14:58.922Z,12.90
2022-12-23T13:17:43.794Z,12.90
2022-12-23T13:20:35.477Z,12.90
2022-12-23T13:23:41.728Z,12.90
2022-12-23T13:26:17.565Z,12.90
2022-12-23T13:29:10.039Z,12.90
2022-12-23T13:31:49.511Z,12.90
2022-12-23T13:34:29.831Z,13.00
2022-12-23T13:37:17.532Z,13.00
2022-12-23T13:40:03.978Z,13.00
2022-12-23T13:42:42.267Z,13.10
2022-12-23T13:45:15.906Z,13.10
2022-12-23T13:48:29.924Z,13.10
2022-12-23T13:51:23.864Z,13.20
2022-12-23T13:54:23.881Z,13.20
2022-12-23T13:57:29.133Z,13.30
2022-12-23T14:00:29.882Z,13.30
2022-12-23T14:03:02.191Z,13.40
2022-12-23T14:05:50.935Z,13.40
2022-12-23T14:08:17.699Z,13.40
2022-12-23T14:10:59.613Z,13.50
2022-12-23T14:13:36.376Z,13.50
2022-12-23T14:16:45.016Z,13.50
2022-12-23T14:19:49.782Z,13.50
2022-12-23T14:22:53.122Z,13.50
2022-12-23T14:25:51.944Z,13.50
2022-12-23T14:28:30.927Z,13.50
2022-12-23T14:31:04.681Z,13.50
2022-12-23T14:33:48.022Z,13.50
2022-12-23T14:36:15.066Z,13.50
2022-12-23T14:38:42.033Z,13.50
2022-12-23T14:41:18.078Z,13.50
2022-12-23T14:43:45.524Z,13.60
2022-12-23T14:46:50.715Z,13.60
2022-12-23T14:49:40.489Z,13.70
2022-12-23T14:52:47.307Z,13.70
2022-12-23T14:55:31.446Z,13.80
2022-12-23T14:58:16.934Z,13.80
2022-12-23T15:00:51.933Z,13.90
2022-12-23T15:03:19.484Z,14.00
2022-12-23T15:05:50.239Z,14.10
2022-12-23T15:08:32.013Z,14.10
2022-12-23T15:10:59.007Z,14.10
2022-12-23T15:13:30.247Z,14.10
2022-12-23T15:16:01.810Z,14.20
2022-12-23T15:18:28.815Z,14.20
2022-12-23T15:20:59.613Z,14.30
2022-12-23T15:23:26.563Z,14.30
2022-12-23T15:25:57.413Z,14.20
2022-12-23T15:28:35.454Z,14.10
2022-12-23T15:31:05.983Z,14.20
2022-12-23T15:34:02.174Z,14.30
2022-12-23T15:36:34.614Z,14.30
2022-12-23T15:39:07.678Z,14.30
2022-12-23T15:41:41.989Z,14.40
2022-12-23T15:44:17.702Z,14.40
2022-12-23T15:46:45.226Z,14.40
2022-12-23T15:49:12.429Z,14.50
2022-12-23T15:52:07.607Z,14.40
2022-12-23T15:54:43.156Z,14.50
2022-12-23T15:57:23.100Z,14.40
2022-12-23T15:59:53.119Z,14.40
2022-12-23T16:02:58.902Z,14.40
2022-12-23T16:05:22.787Z,14.40
2022-12-23T16:07:49.492Z,14.30
2022-12-23T16:10:22.097Z,14.30
2022-12-23T16:12:50.422Z,14.30
2022-12-23T16:15:28.800Z,14.30
2022-12-23T16:18:46.959Z,14.20
2022-12-23T16:21:18.534Z,14.10
2022-12-23T16:23:53.840Z,14.00
2022-12-23T16:26:20.985Z,14.00
2022-12-23T16:28:51.127Z,13.90
2022-12-23T16:31:19.953Z,13.90
2022-12-23T16:34:00.205Z,13.90
2022-12-23T16:36:29.307Z,13.90
2022-12-23T16:39:12.091Z,13.80
2022-12-23T16:41:38.885Z,13.80
2022-12-23T16:44:05.751Z,13.90
2022-12-23T16:46:40.106Z,13.90
2022-12-23T16:49:12.345Z,13.90
2022-12-23T16:51:39.790Z,14.00
2022-12-23T16:54:21.410Z,14.00
2022-12-23T16:56:49.262Z,14.00
2022-12-23T16:59:15.987Z,14.00
2022-12-23T17:01:49.126Z,14.10
2022-12-23T17:04:15.960Z,14.10
2022-12-23T17:06:42.828Z,14.00
2022-12-23T17:09:15.357Z,14.00
2022-12-23T17:11:46.312Z,14.00
2022-12-23T17:17:02.502Z,13.90
2022-12-23T17:19:33.120Z,13.80
2022-12-23T17:22:02.325Z,13.70
2022-12-23T17:24:31.308Z,13.70
2022-12-23T17:27:00.227Z,13.70
2022-12-23T17:29:27.558Z,13.70
2022-12-23T17:31:55.650Z,13.60
2022-12-23T17:34:27.161Z,13.60
2022-12-23T17:37:01.146Z,13.50
2022-12-23T17:39:29.634Z,13.50
2022-12-23T17:41:56.572Z,13.50
2022-12-23T17:44:23.287Z,13.40
2022-12-23T17:49:45.957Z,13.40
2022-12-23T17:52:21.199Z,13.30
2022-12-23T17:54:50.890Z,13.30
2022-12-23T17:57:24.397Z,13.20
2022-12-23T17:59:53.022Z,13.20
2022-12-23T18:02:28.762Z,13.10
2022-12-23T18:04:55.935Z,13.10
2022-12-23T18:07:22.567Z,13.00
2022-12-23T18:09:54.319Z,13.00
2022-12-23T18:12:35.620Z,13.00
2022-12-23T18:15:07.239Z,13.00
2022-12-23T18:17:33.810Z,13.00
2022-12-23T18:20:05.374Z,13.00
2022-12-23T18:22:35.199Z,13.00
2022-12-23T18:25:03.147Z,13.00
2022-12-23T18:27:33.316Z,13.00
2022-12-23T18:30:06.257Z,13.00
2022-12-23T18:32:36.422Z,13.10
2022-12-23T18:35:24.274Z,13.00
2022-12-23T18:37:51.436Z,13.00
2022-12-23T18:40:18.563Z,13.00
2022-12-23T18:42:45.679Z,13.10
2022-12-23T18:45:28.971Z,13.10
2022-12-23T18:47:59.180Z,13.10
2022-12-23T18:50:29.653Z,13.10
2022-12-23T18:52:57.118Z,13.10
2022-12-23T18:55:29.290Z,13.20
2022-12-23T18:58:00.408Z,13.20
2022-12-23T19:00:29.696Z,13.20
2022-12-23T19:06:05.796Z,13.30
2022-12-23T19:08:37.363Z,13.30
2022-12-23T19:11:16.609Z,13.30
2022-12-23T19:13:44.001Z,13.20
2022-12-23T19:16:24.219Z,13.20
2022-12-23T19:19:16.113Z,13.20
2022-12-23T19:21:44.579Z,13.20
2022-12-23T19:24:14.506Z,13.20
2022-12-23T19:26:41.101Z,13.30
2022-12-23T19:29:08.645Z,13.30
2022-12-23T19:31:35.462Z,13.30
2022-12-23T19:37:02.674Z,13.20
2022-12-23T19:39:29.521Z,13.20
2022-12-23T19:41:57.353Z,13.10
2022-12-23T19:44:27.557Z,13.10
2022-12-23T19:46:54.246Z,13.10
2022-12-23T19:49:24.568Z,13.00
2022-12-23T19:51:51.521Z,13.00
2022-12-23T19:54:18.537Z,13.00
2022-12-23T19:56:49.402Z,13.00
2022-12-23T19:59:16.796Z,13.00
2022-12-23T20:01:46.116Z,12.90
2022-12-23T20:04:15.768Z,12.90
2022-12-23T20:06:43.744Z,12.90
2022-12-23T20:09:13.489Z,12.90
2022-12-23T20:11:45.297Z,12.90
2022-12-23T20:14:13.533Z,12.90
2022-12-23T20:16:43.337Z,12.90
2022-12-23T20:19:12.690Z,12.90
2022-12-23T20:21:42.000Z,12.90
2022-12-23T20:24:08.949Z,12.90
2022-12-23T20:26:35.810Z,13.00
2022-12-23T20:29:04.937Z,12.90
2022-12-23T20:31:33.517Z,12.90
2022-12-23T20:34:12.769Z,12.90
2022-12-23T20:36:39.617Z,12.90
2022-12-23T20:39:06.591Z,12.90
2022-12-23T20:41:33.731Z,12.90
2022-12-23T20:44:33.021Z,12.90
2022-12-23T20:46:49.739Z,12.90
2022-12-23T20:49:19.472Z,13.00
2022-12-23T20:51:46.541Z,13.00
2022-12-23T20:54:14.906Z,13.00
2022-12-23T20:56:41.628Z,13.00
2022-12-23T20:59:11.757Z,13.00
2022-12-23T21:01:39.649Z,13.10
2022-12-23T21:04:15.047Z,13.10
2022-12-23T21:06:44.725Z,13.10
2022-12-23T21:09:13.830Z,13.10
2022-12-23T21:11:44.711Z,13.10
2022-12-23T21:14:12.822Z,13.10
2022-12-23T21:16:42.345Z,13.20
2022-12-23T21:19:17.731Z,13.20
2022-12-23T21:21:47.864Z,13.20
2022-12-23T21:24:15.156Z,13.20
2022-12-23T21:26:43.731Z,13.20
2022-12-23T21:29:11.711Z,13.20
2022-12-23T21:31:40.444Z,13.20
2022-12-23T21:34:07.696Z,13.20
2022-12-23T21:36:39.704Z,13.20
2022-12-23T21:39:14.459Z,13.20
2022-12-23T21:41:50.259Z,13.10
2022-12-23T21:44:19.524Z,13.10
2022-12-23T21:46:52.471Z,13.10
2022-12-23T21:49:19.905Z,13.20
2022-12-23T21:51:46.579Z,13.20
2022-12-23T21:54:13.619Z,13.20
2022-12-23T21:56:41.240Z,13.20
2022-12-23T21:59:12.426Z,13.30
2022-12-23T22:01:40.192Z,13.30
2022-12-23T22:04:10.695Z,13.40
2022-12-23T22:06:42.664Z,13.40
2022-12-23T22:09:11.333Z,13.30
2022-12-23T22:11:38.204Z,13.30
2022-12-23T22:14:10.969Z,13.40
2022-12-23T22:16:37.741Z,13.30
2022-12-23T22:19:06.019Z,13.30
2022-12-23T22:21:33.617Z,13.30
2022-12-23T22:24:11.351Z,13.30
2022-12-23T22:26:39.319Z,13.30
2022-12-23T22:29:07.668Z,13.30
2022-12-23T22:31:47.565Z,13.20
2022-12-23T22:34:19.557Z,13.10
2022-12-23T22:36:46.614Z,13.10
2022-12-23T22:39:20.914Z,13.00
2022-12-23T22:41:51.462Z,13.00
2022-12-23T22:44:19.031Z,13.00
2022-12-23T22:46:49.818Z,13.10
2022-12-23T22:49:19.469Z,13.10
2022-12-23T22:51:49.769Z,13.10
2022-12-23T22:54:16.667Z,13.10
2022-12-23T22:56:45.039Z,13.10
2022-12-23T22:59:27.669Z,13.10
2022-12-23T23:02:02.823Z,13.10
2022-12-23T23:04:31.682Z,13.10
2022-12-23T23:07:01.693Z,13.00
2022-12-23T23:09:28.583Z,13.10
2022-12-23T23:11:55.312Z,13.10
2022-12-23T23:14:22.070Z,13.10
2022-12-23T23:16:51.070Z,13.00
2022-12-23T23:19:19.627Z,13.00
2022-12-23T23:21:48.023Z,12.80
2022-12-23T23:24:16.801Z,12.70
2022-12-23T23:26:46.817Z,12.60
2022-12-23T23:29:22.711Z,12.50
2022-12-23T23:31:55.772Z,12.50
2022-12-23T23:34:22.672Z,12.40
2022-12-23T23:36:54.869Z,12.40
2022-12-23T23:39:21.454Z,12.40
2022-12-23T23:41:48.187Z,12.40
2022-12-23T23:44:17.568Z,12.40
2022-12-23T23:46:47.012Z,12.40
2022-12-23T23:49:14.080Z,12.30
2022-12-23T23:51:41.310Z,12.20
2022-12-23T23:54:11.891Z,12.10
2022-12-23T23:56:39.485Z,12.00
2022-12-23T23:59:08.047Z,12.00
